createdAt,value
2022-12-23T00:01:44.386Z,5.95
2022-12-23T00:04:10.870Z,5.85
2022-12-23T00:06:37.251Z,5.97
2022-12-23T00:09:03.949Z,5.97
2022-12-23T00:11:30.364Z,5.53
2022-12-23T00:14:21.097Z,5.68
2022-12-23T00:16:48.013Z,5.43
2022-12-23T00:19:14.388Z,5.47
2022-12-23T00:21:40.758Z,5.28
2022-12-23T00:24:07.155Z,5.30
2022-12-23T00:26:33.508Z,5.25
2022-12-23T00:28:59.838Z,5.68
2022-12-23T00:31:26.424Z,5.38
2022-12-23T00:33:54.211Z,5.80
2022-12-23T00:36:24.371Z,5.53
2022-12-23T00:39:10.263Z,5.10
2022-12-23T00:41:55.515Z,5.10
2022-12-23T00:44:22.002Z,5.28
2022-12-23T00:46:49.377Z,4.75
2022-12-23T00:49:36.032Z,4.68
2022-12-23T00:52:03.833Z,4.72
2022-12-23T00:54:31.767Z,3.92
2022-12-23T00:56:58.822Z,4.97
2022-12-23T00:59:25.347Z,5.13
2022-12-23T01:02:10.525Z,4.68
2022-12-23T01:04:55.558Z,4.80
2022-12-23T01:07:23.271Z,4.93
2022-12-23T01:09:49.830Z,5.00
2022-12-23T01:12:16.221Z,5.00
2022-12-23T01:14:42.561Z,4.93
2022-12-23T01:17:09.491Z,4.85
2022-12-23T01:19:36.028Z,5.28
2022-12-23T01:22:02.624Z,5.10
2022-12-23T01:24:30.561Z,5.60
2022-12-23T01:26:57.110Z,5.72
2022-12-23T01:29:24.143Z,6.05
2022-12-23T01:31:50.666Z,5.88
2022-12-23T01:34:17.167Z,6.57
2022-12-23T01:36:43.855Z,5.57
2022-12-23T01:39:10.284Z,5.82
2022-12-23T01:41:55.413Z,5.60
2022-12-23T01:44:49.867Z,5.90
2022-12-23T01:47:22.408Z,5.10
2022-12-23T01:49:52.642Z,5.68
2022-12-23T01:52:19.407Z,5.13
2022-12-23T01:54:45.969Z,5.82
2022-12-23T01:57:13.012Z,5.65
2022-12-23T01:59:59.494Z,5.25
2022-12-23T02:02:46.310Z,5.32
2022-12-23T02:05:12.990Z,5.70
2022-12-23T02:07:58.778Z,6.20
2022-12-23T02:10:36.467Z,6.07
2022-12-23T02:13:26.205Z,5.70
2022-12-23T02:16:19.174Z,5.85
2022-12-23T02:18:59.331Z,5.97
2022-12-23T02:22:01.809Z,6.20
2022-12-23T02:25:06.799Z,6.15
2022-12-23T02:27:58.937Z,6.50
2022-12-23T02:30:57.833Z,6.10
2022-12-23T02:34:00.277Z,6.10
2022-12-23T02:36:45.801Z,6.22
2022-12-23T02:39:35.325Z,6.43
2022-12-23T02:42:31.996Z,6.18
2022-12-23T02:45:15.602Z,5.78
2022-12-23T02:47:49.975Z,6.13
2022-12-23T02:50:23.872Z,5.68
2022-12-23T02:52:52.829Z,6.00
2022-12-23T02:55:25.112Z,6.03
2022-12-23T02:57:55.255Z,5.72
2022-12-23T03:00:22.345Z,5.63
2022-12-23T03:02:49.122Z,5.43
2022-12-23T03:05:25.952Z,5.82
2022-12-23T03:07:53.875Z,6.25
2022-12-23T03:10:35.601Z,5.90
2022-12-23T03:13:13.274Z,6.13
2022-12-23T03:15:51.939Z,5.80
2022-12-23T03:18:27.023Z,6.00
2022-12-23T03:21:32.510Z,5.73
2022-12-23T03:24:13.888Z,5.45
2022-12-23T03:27:06.479Z,5.43
2022-12-23T03:29:55.848Z,4.97
2022-12-23T03:32:24.788Z,5.45
2022-12-23T03:34:54.624Z,5.60
2022-12-23T03:37:24.082Z,5.00
2022-12-23T03:39:58.622Z,5.05
2022-12-23T03:42:30.044Z,5.45
2022-12-23T03:47:59.497Z,5.25
2022-12-23T03:50:27.154Z,4.80
2022-12-23T03:52:58.329Z,5.55
2022-12-23T03:55:34.592Z,5.55
2022-12-23T03:58:22.707Z,5.05
2022-12-23T04:00:59.869Z,4.93
2022-12-23T04:03:47.696Z,6.00
2022-12-23T04:06:17.505Z,6.03
2022-12-23T04:08:46.339Z,5.93
2022-12-23T04:11:13.019Z,6.78
2022-12-23T04:13:39.406Z,6.75
2022-12-23T04:16:06.494Z,6.85
2022-12-23T04:18:32.990Z,7.88
2022-12-23T04:20:59.504Z,7.20
2022-12-23T04:23:25.901Z,8.20
2022-12-23T04:25:52.258Z,7.18
2022-12-23T04:28:18.610Z,8.27
2022-12-23T04:30:44.970Z,7.88
2022-12-23T04:33:12.651Z,7.10
2022-12-23T04:35:39.200Z,7.93
2022-12-23T04:38:05.581Z,7.22
2022-12-23T04:40:31.989Z,7.93
2022-12-23T04:42:58.315Z,7.60
2022-12-23T04:45:24.679Z,7.97
2022-12-23T04:47:51.110Z,8.10
2022-12-23T04:50:17.767Z,7.15
2022-12-23T04:52:44.504Z,8.07
2022-12-23T04:55:11.549Z,8.30
2022-12-23T04:57:37.908Z,8.00
2022-12-23T05:00:05.248Z,8.20
2022-12-23T05:02:31.666Z,8.50
2022-12-23T05:04:58.027Z,9.05
2022-12-23T05:07:24.354Z,8.95
2022-12-23T05:09:50.718Z,9.48
2022-12-23T05:12:17.295Z,8.75
2022-12-23T05:14:43.755Z,10.93
2022-12-23T05:17:10.141Z,11.32
2022-12-23T05:19:36.508Z,9.82
2022-12-23T05:22:02.919Z,10.05
2022-12-23T05:24:29.247Z,11.30
2022-12-23T05:26:59.716Z,10.23
2022-12-23T05:29:26.301Z,10.93
2022-12-23T05:31:52.681Z,10.98
2022-12-23T05:34:19.234Z,11.48
2022-12-23T05:36:45.574Z,12.52
2022-12-23T05:39:12.040Z,11.73
2022-12-23T05:41:38.421Z,12.05
2022-12-23T05:44:04.911Z,11.82
2022-12-23T05:46:31.367Z,12.20
2022-12-23T05:48:57.720Z,12.52
2022-12-23T05:51:24.193Z,11.48
2022-12-23T05:53:50.633Z,11.68
2022-12-23T05:56:16.982Z,11.45
2022-12-23T05:58:43.348Z,12.20
2022-12-23T06:01:09.751Z,12.45
2022-12-23T06:03:36.177Z,11.40
2022-12-23T06:06:02.709Z,12.60
2022-12-23T06:08:29.204Z,11.90
2022-12-23T06:10:55.654Z,11.68
2022-12-23T06:13:22.011Z,11.93
2022-12-23T06:15:48.429Z,12.43
2022-12-23T06:18:15.031Z,12.40
2022-12-23T06:20:41.349Z,12.27
2022-12-23T06:23:07.684Z,13.30
2022-12-23T06:25:34.078Z,13.18
2022-12-23T06:28:00.453Z,12.15
2022-12-23T06:30:26.799Z,12.80
2022-12-23T06:32:53.142Z,12.85
2022-12-23T06:35:19.483Z,13.15
2022-12-23T06:37:45.847Z,12.55
2022-12-23T06:40:12.802Z,11.95
2022-12-23T06:42:39.152Z,11.85
2022-12-23T06:45:05.919Z,11.85
2022-12-23T06:47:32.258Z,12.38
2022-12-23T06:49:58.581Z,13.38
2022-12-23T06:52:24.944Z,11.38
2022-12-23T06:54:51.285Z,12.50
2022-12-23T06:57:17.658Z,12.85
2022-12-23T06:59:44.152Z,12.18
2022-12-23T07:02:11.761Z,12.45
2022-12-23T07:04:38.322Z,13.55
2022-12-23T07:07:04.731Z,13.40
2022-12-23T07:09:31.161Z,12.60
2022-12-23T07:11:57.553Z,12.88
2022-12-23T07:14:23.880Z,13.10
2022-12-23T07:16:50.444Z,13.60
2022-12-23T07:19:16.991Z,14.07
2022-12-23T07:21:43.423Z,13.93
2022-12-23T07:24:10.046Z,14.93
2022-12-23T07:26:36.784Z,13.57
2022-12-23T07:29:59.142Z,13.45
2022-12-23T07:32:25.872Z,13.50
2022-12-23T07:34:52.249Z,13.13
2022-12-23T07:37:18.624Z,14.27
2022-12-23T07:39:44.976Z,14.25
2022-12-23T07:47:24.020Z,13.55
2022-12-23T07:49:50.401Z,13.60
2022-12-23T07:52:16.997Z,13.07
2022-12-23T07:54:43.522Z,14.38
2022-12-23T07:57:09.928Z,14.43
2022-12-23T07:59:36.574Z,14.52
2022-12-23T08:02:03.159Z,15.63
2022-12-23T08:04:29.748Z,15.57
2022-12-23T08:06:56.157Z,14.20
2022-12-23T08:09:22.510Z,14.40
2022-12-23T08:11:48.864Z,15.05
2022-12-23T08:14:15.242Z,15.02
2022-12-23T08:16:44.280Z,16.52
2022-12-23T08:19:10.857Z,15.60
2022-12-23T08:21:37.195Z,15.35
2022-12-23T08:24:03.811Z,15.40
2022-12-23T08:26:30.138Z,15.18
2022-12-23T08:28:56.457Z,16.13
2022-12-23T08:31:27.984Z,16.35
2022-12-23T08:33:56.803Z,16.70
2022-12-23T08:36:26.643Z,16.58
2022-12-23T08:38:54.692Z,15.88
2022-12-23T08:41:33.091Z,15.27
2022-12-23T08:43:59.634Z,15.38
2022-12-23T08:46:26.418Z,15.27
2022-12-23T08:48:53.082Z,14.98
2022-12-23T08:51:20.573Z,15.65
2022-12-23T08:53:48.174Z,15.98
2022-12-23T08:56:20.357Z,15.82
2022-12-23T08:58:48.809Z,14.90
2022-12-23T09:01:17.930Z,15.48
2022-12-23T09:03:45.129Z,16.33
2022-12-23T09:06:31.342Z,15.60
2022-12-23T09:08:58.678Z,15.07
2022-12-23T09:11:27.590Z,14.95
2022-12-23T09:13:54.224Z,14.75
2022-12-23T09:16:20.826Z,14.48
2022-12-23T09:18:47.491Z,15.00
2022-12-23T09:21:17.805Z,14.05
2022-12-23T09:23:44.188Z,14.25
2022-12-23T09:26:11.699Z,16.98
2022-12-23T09:28:39.419Z,17.20
2022-12-23T09:31:11.309Z,16.90
2022-12-23T09:33:38.353Z,15.35
2022-12-23T09:36:06.103Z,14.93
2022-12-23T09:38:33.281Z,15.32
2022-12-23T09:41:06.342Z,15.05
2022-12-23T09:43:54.233Z,14.38
2022-12-23T09:46:23.962Z,14.23
2022-12-23T09:49:13.335Z,14.15
2022-12-23T09:51:39.700Z,13.52
2022-12-23T09:54:22.890Z,12.38
2022-12-23T09:56:57.696Z,13.88
2022-12-23T09:59:49.074Z,11.75
2022-12-23T10:02:21.640Z,10.88
2022-12-23T10:05:02.817Z,11.43
2022-12-23T10:07:35.717Z,11.27
2022-12-23T10:10:13.434Z,11.68
2022-12-23T10:12:44.552Z,12.10
2022-12-23T10:15:30.889Z,10.85
2022-12-23T10:18:06.270Z,10.93
2022-12-23T10:20:39.396Z,12.48
2022-12-23T10:23:14.057Z,11.45
2022-12-23T10:25:48.920Z,11.30
2022-12-23T10:28:15.301Z,11.65
2022-12-23T10:34:04.431Z,11.25
2022-12-23T10:37:03.250Z,10.23
2022-12-23T10:39:59.782Z,10.88
2022-12-23T10:42:39.242Z,10.35
2022-12-23T10:45:33.398Z,11.80
2022-12-23T10:48:23.988Z,10.75
2022-12-23T10:50:54.439Z,10.02
2022-12-23T10:53:46.923Z,11.20
2022-12-23T10:56:14.987Z,11.38
2022-12-23T10:58:45.355Z,11.75
2022-12-23T11:01:22.105Z,12.75
2022-12-23T11:04:02.380Z,13.63
2022-12-23T11:06:36.810Z,13.88
2022-12-23T11:09:05.056Z,14.27
2022-12-23T11:12:03.573Z,13.57
2022-12-23T11:14:37.027Z,14.25
2022-12-23T11:17:05.997Z,16.00
2022-12-23T11:19:32.412Z,17.73
2022-12-23T11:22:00.968Z,16.10
2022-12-23T11:24:35.422Z,15.68
2022-12-23T11:27:07.153Z,15.10
2022-12-23T11:29:36.943Z,14.52
2022-12-23T11:32:18.166Z,14.60
2022-12-23T11:34:47.364Z,14.15
2022-12-23T11:37:31.891Z,15.52
2022-12-23T11:39:58.416Z,14.23
2022-12-23T11:42:29.236Z,14.38
2022-12-23T11:44:58.773Z,14.50
2022-12-23T11:47:28.969Z,14.82
2022-12-23T11:49:58.137Z,15.02
2022-12-23T11:52:27.754Z,14.80
2022-12-23T11:55:05.221Z,14.77
2022-12-23T11:57:39.913Z,15.23
2022-12-23T12:00:28.887Z,15.35
2022-12-23T12:02:58.645Z,14.75
2022-12-23T12:05:40.385Z,14.85
2022-12-23T12:08:14.157Z,16.67
2022-12-23T12:10:42.536Z,15.55
2022-12-23T12:13:29.105Z,13.88
2022-12-23T12:16:33.223Z,14.40
2022-12-23T12:19:14.869Z,13.75
2022-12-23T12:21:41.203Z,14.13
2022-12-23T12:24:28.642Z,15.45
2022-12-23T12:27:01.503Z,14.88
2022-12-23T12:29:39.276Z,15.05
2022-12-23T12:32:16.846Z,14.15
2022-12-23T12:34:58.737Z,16.55
2022-12-23T12:38:02.548Z,17.60
2022-12-23T12:40:42.900Z,15.80
2022-12-23T12:43:31.270Z,16.02
2022-12-23T12:46:11.793Z,16.67
2022-12-23T12:48:55.663Z,16.63
2022-12-23T12:51:29.712Z,16.33
2022-12-23T12:54:20.235Z,17.92
2022-12-23T12:56:53.046Z,16.13
2022-12-23T12:59:29.403Z,16.13
2022-12-23T13:02:22.341Z,16.77
2022-12-23T13:05:07.456Z,16.42
2022-12-23T13:07:52.570Z,14.98
2022-12-23T13:10:44.290Z,14.45
2022-12-23T13:13:31.289Z,14.57
2022-12-23T13:16:07.320Z,15.38
2022-12-23T13:18:46.417Z,14.07
2022-12-23T13:21:16.467Z,14.73
2022-12-23T13:23:59.264Z,13.55
2022-12-23T13:26:38.982Z,12.43
2022-12-23T13:29:30.211Z,13.65
2022-12-23T13:32:05.901Z,13.65
2022-12-23T13:34:55.892Z,14.10
2022-12-23T13:37:43.816Z,14.43
2022-12-23T13:40:29.004Z,13.90
2022-12-23T13:43:02.302Z,14.18
2022-12-23T13:45:36.136Z,13.80
2022-12-23T13:48:18.260Z,14.52
2022-12-23T13:50:52.545Z,13.98
2022-12-23T13:53:32.425Z,14.30
2022-12-23T13:56:57.559Z,14.00
2022-12-23T13:59:39.142Z,13.82
2022-12-23T14:02:37.487Z,14.07
2022-12-23T14:05:07.496Z,14.27
2022-12-23T14:07:35.788Z,13.30
2022-12-23T14:10:21.759Z,14.23
2022-12-23T14:12:50.456Z,14.73
2022-12-23T14:15:42.953Z,13.77
2022-12-23T14:18:46.350Z,13.00
2022-12-23T14:21:28.800Z,13.35
2022-12-23T14:24:04.662Z,12.55
2022-12-23T14:27:24.766Z,12.25
2022-12-23T14:30:12.147Z,12.25
2022-12-23T14:33:00.318Z,12.10
2022-12-23T14:35:40.119Z,10.73
2022-12-23T14:38:14.902Z,11.30
2022-12-23T14:41:17.049Z,11.35
2022-12-23T14:43:46.095Z,9.55
2022-12-23T14:46:34.505Z,9.55
2022-12-23T14:49:29.964Z,10.90
2022-12-23T14:51:50.715Z,9.50
2022-12-23T14:54:18.720Z,9.98
2022-12-23T14:57:04.875Z,10.40
2022-12-23T14:59:58.218Z,10.52
2022-12-23T15:02:36.302Z,10.20
2022-12-23T15:05:04.404Z,10.13
2022-12-23T15:07:36.692Z,10.88
2022-12-23T15:10:15.409Z,10.27
2022-12-23T15:12:46.085Z,10.38
2022-12-23T15:15:27.240Z,10.20
2022-12-23T15:18:12.502Z,10.15
2022-12-23T15:20:39.368Z,10.60
2022-12-23T15:23:11.418Z,10.23
2022-12-23T15:25:44.700Z,10.32
2022-12-23T15:28:18.046Z,10.30
2022-12-23T15:30:52.946Z,10.35
2022-12-23T15:34:01.438Z,10.63
2022-12-23T15:36:14.802Z,10.90
2022-12-23T15:38:41.600Z,10.75
2022-12-23T15:41:17.155Z,10.02
2022-12-23T15:43:44.689Z,11.88
2022-12-23T15:46:29.349Z,11.32
2022-12-23T15:48:57.375Z,11.97
2022-12-23T15:51:58.314Z,12.40
2022-12-23T15:54:32.568Z,11.43
2022-12-23T15:57:02.427Z,11.88
2022-12-23T15:59:34.296Z,11.48
2022-12-23T16:05:10.314Z,12.60
2022-12-23T16:07:39.719Z,12.98
2022-12-23T16:10:21.573Z,12.98
2022-12-23T16:12:51.258Z,12.75
2022-12-23T16:15:29.888Z,13.02
2022-12-23T16:18:26.040Z,14.60
2022-12-23T16:21:00.393Z,14.70
2022-12-23T16:23:32.767Z,15.70
2022-12-23T16:26:00.929Z,14.43
2022-12-23T16:28:34.885Z,14.20
2022-12-23T16:31:05.535Z,13.55
2022-12-23T16:33:37.118Z,12.07
2022-12-23T16:36:26.123Z,11.43
2022-12-23T16:38:58.529Z,14.02
2022-12-23T16:41:24.956Z,12.10
2022-12-23T16:43:52.650Z,13.80
2022-12-23T16:46:21.891Z,13.10
2022-12-23T16:49:11.001Z,12.57
2022-12-23T16:51:39.540Z,11.85
2022-12-23T16:54:05.905Z,11.45
2022-12-23T16:56:37.615Z,11.20
2022-12-23T16:59:04.641Z,11.63
2022-12-23T17:01:34.774Z,12.73
2022-12-23T17:04:01.245Z,11.70
2022-12-23T17:06:28.367Z,11.30
2022-12-23T17:08:56.811Z,12.02
2022-12-23T17:11:31.774Z,11.80
2022-12-23T17:14:04.142Z,12.07
2022-12-23T17:16:32.685Z,12.70
2022-12-23T17:18:59.969Z,12.68
2022-12-23T17:21:28.605Z,12.30
2022-12-23T17:24:03.002Z,12.27
2022-12-23T17:32:00.538Z,10.63
2022-12-23T17:34:26.945Z,10.00
2022-12-23T17:36:53.496Z,10.02
2022-12-23T17:39:20.856Z,11.15
2022-12-23T17:41:47.984Z,11.55
2022-12-23T17:44:16.579Z,10.80
2022-12-23T17:46:44.451Z,11.75
2022-12-23T17:49:11.474Z,11.18
2022-12-23T17:51:39.916Z,10.85
2022-12-23T17:54:06.570Z,9.60
2022-12-23T17:56:33.150Z,9.63
2022-12-23T17:58:59.512Z,9.32
2022-12-23T18:01:28.391Z,8.73
2022-12-23T18:03:55.947Z,9.05
2022-12-23T18:09:14.030Z,9.18
2022-12-23T18:11:44.192Z,10.55
2022-12-23T18:14:17.749Z,9.05
2022-12-23T18:16:44.355Z,10.25
2022-12-23T18:19:20.537Z,10.07
2022-12-23T18:21:47.212Z,10.60
2022-12-23T18:24:13.553Z,9.88
2022-12-23T18:26:40.058Z,9.48
2022-12-23T18:29:06.462Z,8.65
2022-12-23T18:31:33.156Z,7.80
2022-12-23T18:34:00.082Z,8.48
2022-12-23T18:36:30.361Z,7.85
2022-12-23T18:38:57.573Z,8.38
2022-12-23T18:41:25.740Z,8.07
2022-12-23T18:43:52.702Z,8.30
2022-12-23T18:48:59.066Z,7.72
2022-12-23T18:51:25.401Z,7.95
2022-12-23T18:53:51.818Z,9.55
2022-12-23T18:56:22.704Z,9.05
2022-12-23T18:58:49.148Z,8.65
2022-12-23T19:01:17.236Z,8.85
2022-12-23T19:03:59.841Z,7.60
2022-12-23T19:06:26.666Z,7.38
2022-12-23T19:08:53.039Z,7.95
2022-12-23T19:11:20.532Z,8.40
2022-12-23T19:13:47.074Z,8.90
2022-12-23T19:16:19.058Z,8.65
2022-12-23T19:21:20.765Z,9.55
2022-12-23T19:23:47.098Z,9.15
2022-12-23T19:26:14.734Z,8.77
2022-12-23T19:28:41.750Z,9.20
2022-12-23T19:31:14.466Z,10.10
2022-12-23T19:33:42.775Z,8.70
2022-12-23T19:36:14.661Z,9.15
2022-12-23T19:38:41.676Z,9.43
2022-12-23T19:41:09.408Z,9.88
2022-12-23T19:43:37.434Z,9.57
2022-12-23T19:46:07.477Z,11.68
2022-12-23T19:48:34.077Z,12.55
2022-12-23T19:51:04.017Z,11.65
2022-12-23T19:53:30.904Z,11.52
2022-12-23T19:56:13.632Z,9.95
2022-12-23T19:58:42.076Z,8.90
2022-12-23T20:01:17.531Z,9.50
2022-12-23T20:03:45.276Z,8.98
2022-12-23T20:06:15.375Z,8.43
2022-12-23T20:08:43.550Z,9.20
2022-12-23T20:11:12.850Z,9.10
2022-12-23T20:13:39.391Z,9.65
2022-12-23T20:16:06.953Z,8.55
2022-12-23T20:18:33.663Z,9.10
2022-12-23T20:21:01.018Z,8.90
2022-12-23T20:23:28.982Z,8.98
2022-12-23T20:25:55.562Z,9.88
2022-12-23T20:28:22.251Z,10.48
2022-12-23T20:30:48.947Z,10.43
2022-12-23T20:33:16.043Z,9.90
2022-12-23T20:35:42.560Z,10.15
2022-12-23T20:38:08.900Z,11.30
2022-12-23T20:40:35.222Z,10.85
2022-12-23T20:43:01.738Z,10.73
2022-12-23T20:45:28.115Z,10.73
2022-12-23T20:47:54.616Z,10.60
2022-12-23T20:50:21.277Z,9.85
2022-12-23T20:52:47.616Z,10.70
2022-12-23T20:55:14.108Z,9.82
2022-12-23T20:57:40.563Z,11.45
2022-12-23T21:00:08.118Z,11.07
2022-12-23T21:02:34.474Z,12.38
2022-12-23T21:05:00.841Z,12.30
2022-12-23T21:07:28.682Z,11.88
2022-12-23T21:09:55.115Z,11.52
2022-12-23T21:12:21.487Z,12.43
2022-12-23T21:14:47.869Z,12.82
2022-12-23T21:17:14.203Z,12.07
2022-12-23T21:19:40.527Z,11.48
2022-12-23T21:22:08.137Z,11.35
2022-12-23T21:24:34.460Z,12.32
2022-12-23T21:27:00.945Z,11.75
2022-12-23T21:29:27.466Z,12.00
2022-12-23T21:31:55.178Z,13.23
2022-12-23T21:34:21.931Z,13.10
2022-12-23T21:36:48.317Z,13.05
2022-12-23T21:39:16.352Z,13.45
2022-12-23T21:41:42.954Z,13.50
2022-12-23T21:44:11.443Z,13.20
2022-12-23T21:46:37.823Z,12.10
2022-12-23T21:49:04.232Z,12.07
2022-12-23T21:51:39.664Z,11.30
2022-12-23T21:54:07.675Z,10.75
2022-12-23T21:56:34.760Z,10.35
2022-12-23T21:59:04.443Z,10.73
2022-12-23T22:01:31.946Z,9.23
2022-12-23T22:03:58.930Z,9.10
2022-12-23T22:06:30.708Z,6.82
2022-12-23T22:08:57.935Z,5.95
2022-12-23T22:11:26.901Z,4.70
2022-12-23T22:13:55.545Z,4.95
2022-12-23T22:16:24.250Z,5.10
2022-12-23T22:18:51.622Z,4.75
2022-12-23T22:21:20.987Z,4.20
2022-12-23T22:23:48.610Z,4.88
2022-12-23T22:26:24.121Z,4.40
2022-12-23T22:28:51.605Z,4.47
2022-12-23T22:31:22.657Z,4.53
2022-12-23T22:33:49.012Z,4.45
2022-12-23T22:36:16.787Z,4.68
2022-12-23T22:38:43.646Z,4.32
2022-12-23T22:41:10.853Z,4.68
2022-12-23T22:43:37.900Z,4.40
2022-12-23T22:46:05.257Z,4.60
2022-12-23T22:48:33.177Z,5.15
2022-12-23T22:51:17.273Z,4.70
2022-12-23T22:53:44.053Z,4.95
2022-12-23T22:56:12.915Z,4.32
2022-12-23T22:58:39.920Z,4.30
2022-12-23T23:01:07.483Z,4.85
2022-12-23T23:03:33.864Z,4.38
2022-12-23T23:06:02.796Z,4.55
2022-12-23T23:08:30.160Z,3.78
2022-12-23T23:10:58.456Z,3.97
2022-12-23T23:13:27.251Z,3.25
2022-12-23T23:15:54.587Z,4.05
2022-12-23T23:18:21.197Z,3.80
2022-12-23T23:20:47.821Z,3.47
2022-12-23T23:23:14.421Z,3.88
2022-12-23T23:25:40.780Z,3.40
2022-12-23T23:28:07.296Z,3.22
2022-12-23T23:30:34.031Z,3.28
2022-12-23T23:33:00.610Z,3.60
2022-12-23T23:35:26.921Z,4.03
2022-12-23T23:37:53.285Z,3.58
2022-12-23T23:40:19.857Z,3.28
2022-12-23T23:42:46.280Z,3.58
2022-12-23T23:45:12.993Z,3.30
2022-12-23T23:47:39.469Z,4.00
2022-12-23T23:50:06.546Z,4.10
2022-12-23T23:52:33.249Z,3.65
2022-12-23T23:54:59.714Z,3.20
2022-12-23T23:57:26.332Z,3.70
2022-12-23T23:59:53.169Z,3.30
